Time;durP1;ratioP1;P1;durP2;ratioP2;P2;SDS_P1;SDS_P2;PMS_P1;PMS_P2;Temp;Humidity;BMP_temperature;BMP_pressure;BME280_temperature;BME280_humidity;BME280_pressure;Samples;Min_cycle;Max_cycle;Signal;HPM_P1;HPM_P2
2022/08/31 00:06:05;;;;;;;1.13;1.00;;;14.90;99.90;15.00;101150.00;;;;4983352;28;83494;-63
2022/08/31 00:08:33;;;;;;;1.38;0.75;;;15.00;99.90;15.00;101149.00;;;;4993204;27;109558;-62
2022/08/31 00:10:59;;;;;;;1.10;0.80;;;15.00;99.90;15.10;101144.00;;;;5004750;27;82651;-63
2022/08/31 00:13:26;;;;;;;1.67;0.93;;;15.00;99.90;15.10;101138.00;;;;4997166;27;105651;-62
2022/08/31 00:15:54;;;;;;;1.40;1.30;;;15.00;99.90;15.10;101134.00;;;;4998300;28;82835;-62
2022/08/31 00:18:20;;;;;;;1.00;0.75;;;15.10;99.90;15.20;101133.00;;;;5009204;27;87977;-63
2022/08/31 00:20:47;;;;;;;1.20;0.90;;;15.10;99.90;15.20;101143.00;;;;5002620;27;100915;-63
2022/08/31 00:23:15;;;;;;;1.45;1.20;;;15.10;99.90;15.20;101140.00;;;;5011024;27;82940;-63
2022/08/31 00:25:45;;;;;;;0.80;0.67;;;15.10;99.90;15.20;101147.00;;;;4999309;27;83098;-63
2022/08/31 00:28:13;;;;;;;1.35;0.47;;;15.20;99.90;15.20;101129.00;;;;4992399;27;88898;-63
2022/08/31 00:30:40;;;;;;;0.98;0.77;;;15.20;99.90;15.20;101139.00;;;;4997439;27;82614;-63
2022/08/31 00:33:06;;;;;;;1.55;0.98;;;15.20;99.90;15.20;101134.00;;;;5000948;27;83104;-63
2022/08/31 00:35:35;;;;;;;0.80;0.70;;;15.20;99.90;15.20;101142.00;;;;5003289;27;83343;-63
2022/08/31 00:38:02;;;;;;;1.58;0.88;;;15.10;99.90;15.20;101147.00;;;;5007815;27;82884;-63
2022/08/31 00:40:28;;;;;;;3.70;1.10;;;15.10;99.90;15.20;101140.00;;;;5011318;27;82579;-63
2022/08/31 00:42:54;;;;;;;1.85;0.63;;;15.20;99.90;15.20;101134.00;;;;4992120;27;94789;-63
2022/08/31 00:45:21;;;;;;;1.10;0.75;;;15.20;99.90;15.20;101145.00;;;;5010391;27;96449;-63
2022/08/31 00:47:47;;;;;;;1.63;0.77;;;15.10;99.90;15.20;101136.00;;;;5012858;27;106848;-63
2022/08/31 00:50:16;;;;;;;1.55;0.70;;;15.10;99.90;15.20;101134.00;;;;4986020;28;93008;-63
2022/08/31 00:52:51;;;;;;;1.50;1.02;;;15.10;99.90;15.20;101138.00;;;;4997955;27;84089;-62
2022/08/31 00:55:31;;;;;;;1.58;0.77;;;15.10;99.90;15.20;101152.00;;;;5009592;27;84111;-63
2022/08/31 00:58:02;;;;;;;0.70;0.70;;;15.10;99.90;15.20;101137.00;;;;5004725;27;82551;-63
2022/08/31 01:00:29;;;;;;;0.65;0.65;;;15.10;99.90;15.20;101137.00;;;;5005921;27;82987;-62
2022/08/31 01:02:56;;;;;;;0.93;0.93;;;15.20;99.90;15.30;101135.00;;;;5013280;27;82750;-62
2022/08/31 01:05:23;;;;;;;1.08;0.88;;;15.20;99.90;15.30;101130.00;;;;5004501;27;82698;-64
2022/08/31 01:07:50;;;;;;;1.95;0.98;;;15.20;99.90;15.30;101124.00;;;;5012443;27;82801;-63
2022/08/31 01:10:20;;;;;;;1.88;1.20;;;15.20;99.90;15.30;101125.00;;;;5003808;27;98368;-63
2022/08/31 01:12:50;;;;;;;1.38;1.15;;;15.20;99.90;15.40;101129.00;;;;5004511;27;90501;-64
2022/08/31 01:15:16;;;;;;;1.33;1.00;;;15.30;99.90;15.40;101125.00;;;;5011661;27;82382;-62
2022/08/31 01:17:45;;;;;;;2.50;1.30;;;15.30;99.90;15.40;101119.00;;;;5005931;27;93251;-63
2022/08/31 01:20:36;;;;;;;1.05;0.98;;;15.30;99.90;15.40;101124.00;;;;4986326;28;91808;-63
2022/08/31 01:23:30;;;;;;;1.35;1.17;;;15.40;99.90;15.40;101124.00;;;;4977454;27;89926;-63
2022/08/31 01:25:58;;;;;;;4.82;1.35;;;15.40;99.90;15.50;101122.00;;;;4989646;27;87322;-62
2022/08/31 01:28:24;;;;;;;1.50;1.40;;;15.40;99.90;15.50;101127.00;;;;4999031;27;101450;-61
2022/08/31 01:31:02;;;;;;;1.00;0.57;;;15.40;99.90;15.50;101137.00;;;;5013597;27;97119;-62
2022/08/31 01:33:28;;;;;;;0.93;0.93;;;15.40;99.90;15.50;101128.00;;;;5003449;27;93292;-63
2022/08/31 01:35:55;;;;;;;0.65;0.65;;;15.40;99.90;15.50;101129.00;;;;5010594;27;82187;-63
2022/08/31 01:38:21;;;;;;;1.65;1.27;;;15.40;99.90;15.50;101132.00;;;;5011849;27;83567;-63
2022/08/31 01:40:57;;;;;;;1.70;1.40;;;15.40;99.90;15.50;101132.00;;;;4989854;27;108301;-63
2022/08/31 01:43:23;;;;;;;1.27;0.88;;;15.40;99.90;15.50;101130.00;;;;5008385;27;83560;-63
2022/08/31 01:45:50;;;;;;;0.93;0.88;;;15.40;99.90;15.60;101121.00;;;;5014140;27;84536;-63
2022/08/31 01:48:16;;;;;;;0.63;0.50;;;15.50;99.90;15.60;101123.00;;;;4987943;27;86070;-62
2022/08/31 01:50:42;;;;;;;1.20;0.68;;;15.50;99.90;15.50;101128.00;;;;5007961;27;100214;-61
2022/08/31 01:53:09;;;;;;;0.40;0.40;;;15.50;99.90;15.50;101117.00;;;;5014408;27;83232;-63
2022/08/31 01:55:35;;;;;;;1.25;0.60;;;15.50;99.90;15.50;101123.00;;;;4987036;27;113306;-64
2022/08/31 01:58:01;;;;;;;0.90;0.90;;;15.40;99.90;15.50;101121.00;;;;5004282;27;83065;-63
2022/08/31 02:00:30;;;;;;;2.10;1.13;;;15.40;99.90;15.50;101123.00;;;;5010612;27;81700;-62
2022/08/31 02:03:00;;;;;;;1.08;0.75;;;15.40;99.90;15.50;101122.00;;;;5000794;27;83207;-63
2022/08/31 02:05:27;;;;;;;0.93;0.82;;;15.50;99.90;15.50;101115.00;;;;5005307;27;82937;-63
2022/08/31 02:07:54;;;;;;;1.40;0.95;;;15.40;99.90;15.50;101114.00;;;;5011564;27;83584;-63
2022/08/31 02:10:21;;;;;;;1.83;1.17;;;15.40;99.90;15.50;101116.00;;;;5001570;27;82683;-62
2022/08/31 02:12:46;;;;;;;0.93;0.63;;;15.40;99.90;15.50;101109.00;;;;5004846;27;83341;-63
2022/08/31 02:15:12;;;;;;;1.23;0.52;;;15.40;99.90;15.50;101111.00;;;;5012369;27;111798;-63
2022/08/31 02:17:38;;;;;;;0.95;0.80;;;15.40;99.90;15.50;101108.00;;;;4992274;27;87228;-64
2022/08/31 02:20:09;;;;;;;1.00;0.85;;;15.50;99.90;15.50;101110.00;;;;4989936;27;82600;-63
2022/08/31 02:22:35;;;;;;;0.77;0.60;;;15.50;99.90;15.50;101110.00;;;;5012066;27;84400;-62
2022/08/31 02:25:01;;;;;;;0.60;0.60;;;15.40;99.90;15.50;101112.00;;;;4989779;27;83040;-63
2022/08/31 02:27:26;;;;;;;0.55;0.55;;;15.40;99.90;15.50;101112.00;;;;5004844;27;110707;-64
2022/08/31 02:29:52;;;;;;;0.93;0.93;;;15.40;99.90;15.50;101118.00;;;;5009573;27;108496;-62
2022/08/31 02:32:20;;;;;;;0.82;0.82;;;15.40;99.90;15.40;101115.00;;;;4992781;27;113328;-63
2022/08/31 02:34:47;;;;;;;1.00;0.60;;;15.40;99.90;15.40;101117.00;;;;5005702;27;84688;-63
2022/08/31 02:37:13;;;;;;;0.50;0.50;;;15.40;99.90;15.40;101118.00;;;;5014133;27;102431;-63
2022/08/31 02:39:39;;;;;;;1.00;0.73;;;15.40;99.90;15.40;101109.00;;;;4991093;27;90382;-63
2022/08/31 02:42:05;;;;;;;0.70;0.70;;;15.40;99.90;15.40;101109.00;;;;5004100;27;111990;-63
2022/08/31 02:44:31;;;;;;;3.38;1.05;;;15.30;99.90;15.40;101106.00;;;;5011043;27;91149;-63
2022/08/31 02:46:56;;;;;;;2.92;0.77;;;15.30;99.90;15.40;101105.00;;;;4997907;27;109733;-64
2022/08/31 02:49:22;;;;;;;0.98;0.88;;;15.30;99.90;15.40;101095.00;;;;5007911;27;82042;-62
2022/08/31 02:51:48;;;;;;;1.00;0.45;;;15.30;99.90;15.40;101094.00;;;;5009835;27;83096;-63
2022/08/31 02:54:14;;;;;;;1.42;0.95;;;15.30;99.90;15.30;101093.00;;;;4993488;27;112724;-63
2022/08/31 02:56:40;;;;;;;1.42;0.88;;;15.30;99.90;15.30;101103.00;;;;4984249;28;112269;-63
2022/08/31 02:59:06;;;;;;;1.08;0.68;;;15.20;99.90;15.30;101104.00;;;;5001945;27;82620;-63
2022/08/31 03:01:34;;;;;;;0.88;0.65;;;15.20;99.90;15.20;101102.00;;;;4999260;27;83993;-63
2022/08/31 03:04:01;;;;;;;1.75;1.10;;;15.20;99.90;15.20;101103.00;;;;4995810;27;83304;-63
2022/08/31 03:06:28;;;;;;;1.70;1.05;;;15.10;99.90;15.10;101104.00;;;;4991306;28;82815;-64
2022/08/31 03:08:54;;;;;;;0.70;0.70;;;15.10;99.90;15.10;101111.00;;;;4998564;27;82866;-63
2022/08/31 03:11:20;;;;;;;0.70;0.70;;;15.10;99.90;15.10;101110.00;;;;5004803;27;97377;-63
2022/08/31 03:13:45;;;;;;;0.88;0.50;;;14.80;99.90;15.00;101110.00;;;;5009101;27;111436;-63
2022/08/31 03:16:13;;;;;;;2.30;0.63;;;15.00;99.90;15.00;101103.00;;;;4998270;27;110595;-63
2022/08/31 03:18:39;;;;;;;0.32;0.32;;;15.00;99.90;15.00;101109.00;;;;5002415;27;82549;-63
2022/08/31 03:21:05;;;;;;;0.70;0.60;;;15.00;99.90;14.90;101100.00;;;;5008574;27;112958;-63
2022/08/31 03:23:30;;;;;;;1.37;0.60;;;14.90;99.90;14.90;101101.00;;;;4997897;27;112912;-63
2022/08/31 03:25:56;;;;;;;1.55;0.65;;;14.90;99.90;14.90;101105.00;;;;4983652;28;110272;-62
2022/08/31 03:28:22;;;;;;;0.98;0.85;;;14.80;99.90;14.90;101099.00;;;;5000302;27;82814;-62
2022/08/31 03:30:48;;;;;;;1.83;0.60;;;14.80;99.90;14.80;101095.00;;;;4998868;27;112276;-64
2022/08/31 03:33:14;;;;;;;2.33;0.87;;;14.80;99.90;14.80;101091.00;;;;5002055;27;83482;-62
2022/08/31 03:35:43;;;;;;;0.87;0.70;;;14.70;99.90;14.70;101096.00;;;;5009361;27;111150;-62
2022/08/31 03:38:11;;;;;;;0.93;0.93;;;14.70;99.90;14.70;101093.00;;;;5007093;27;81914;-63
2022/08/31 03:40:39;;;;;;;1.65;1.10;;;14.70;99.90;14.70;101093.00;;;;5004124;27;82823;-62
2022/08/31 03:43:10;;;;;;;3.37;1.20;;;14.60;99.90;14.60;101110.00;;;;5007354;27;98492;-63
2022/08/31 03:45:37;;;;;;;1.60;1.50;;;14.60;99.90;14.60;101102.00;;;;5000343;27;83626;-63
2022/08/31 03:48:05;;;;;;;0.40;0.40;;;14.50;99.90;14.60;101112.00;;;;4999876;27;82861;-60
2022/08/31 03:50:32;;;;;;;1.20;0.80;;;14.50;99.90;14.50;101105.00;;;;5008815;27;83761;-63
2022/08/31 03:53:02;;;;;;;1.37;1.27;;;14.50;99.90;14.50;101114.00;;;;4999646;27;97390;-62
2022/08/31 03:55:30;;;;;;;1.53;1.43;;;14.40;99.90;14.40;101109.00;;;;5002423;27;82882;-63
2022/08/31 03:57:56;;;;;;;0.83;0.60;;;14.40;99.90;14.40;101108.00;;;;5002468;27;102810;-63
2022/08/31 04:00:24;;;;;;;0.90;0.80;;;14.30;99.90;14.30;101114.00;;;;5004313;27;112098;-64
2022/08/31 04:02:50;;;;;;;1.30;1.20;;;14.30;99.90;14.30;101114.00;;;;4983790;27;83612;-63
2022/08/31 04:05:16;;;;;;;1.23;1.07;;;14.30;99.90;14.20;101107.00;;;;5009766;27;109602;-63
2022/08/31 04:07:43;;;;;;;5.17;1.00;;;14.20;99.90;14.20;101119.00;;;;5002140;27;83053;-63
2022/08/31 04:10:11;;;;;;;1.57;1.47;;;14.20;99.90;14.20;101117.00;;;;5002488;27;101412;-63
2022/08/31 04:12:37;;;;;;;1.40;1.23;;;14.20;99.90;14.10;101122.00;;;;5000296;27;84622;-64
2022/08/31 04:15:04;;;;;;;1.30;1.10;;;14.10;99.90;14.10;101118.00;;;;5002009;27;82524;-62
2022/08/31 04:17:29;;;;;;;1.40;1.30;;;14.00;99.90;14.00;101124.00;;;;4982563;28;101337;-63
2022/08/31 04:19:55;;;;;;;1.03;0.60;;;14.00;99.90;14.00;101122.00;;;;5008514;27;83653;-62
2022/08/31 04:22:21;;;;;;;1.80;0.93;;;14.00;99.90;14.00;101121.00;;;;5003595;27;111637;-63
2022/08/31 04:24:46;;;;;;;1.67;1.10;;;14.00;99.90;14.00;101119.00;;;;4987443;27;110921;-62
2022/08/31 04:27:12;;;;;;;1.53;1.00;;;14.00;99.90;13.90;101116.00;;;;5006858;27;108220;-63
2022/08/31 04:29:38;;;;;;;1.50;1.13;;;13.90;99.90;13.90;101131.00;;;;5001695;27;111826;-62
2022/08/31 04:32:04;;;;;;;0.83;0.83;;;13.90;99.90;13.90;101130.00;;;;4998611;27;82913;-63
2022/08/31 04:34:29;;;;;;;2.90;1.33;;;13.90;99.90;13.90;101131.00;;;;4993094;27;100369;-62
2022/08/31 04:36:55;;;;;;;8.23;1.33;;;13.90;99.90;13.90;101139.00;;;;5006315;27;106899;-63
2022/08/31 04:39:21;;;;;;;1.37;1.20;;;13.90;99.90;13.90;101127.00;;;;4982246;28;113079;-62
2022/08/31 04:41:47;;;;;;;1.27;1.17;;;13.90;99.90;14.00;101136.00;;;;4991192;27;83328;-63
2022/08/31 04:44:13;;;;;;;1.33;1.20;;;13.90;99.90;14.00;101135.00;;;;5006001;27;101901;-64
2022/08/31 04:46:40;;;;;;;1.57;0.70;;;13.90;99.90;14.00;101135.00;;;;4992494;27;101439;-63
2022/08/31 04:49:08;;;;;;;2.03;1.53;;;13.90;99.90;14.00;101131.00;;;;4988600;28;84001;-63
2022/08/31 04:51:37;;;;;;;3.00;1.60;;;14.00;99.90;14.10;101131.00;;;;4993818;27;82155;-63
2022/08/31 04:54:07;;;;;;;2.37;0.93;;;14.00;99.90;14.10;101131.00;;;;5001143;27;83118;-63
2022/08/31 04:56:37;;;;;;;1.07;0.97;;;14.00;99.90;14.10;101136.00;;;;5008698;27;82945;-64
2022/08/31 04:59:11;;;;;;;1.53;1.10;;;14.10;99.90;14.20;101136.00;;;;5006193;27;84617;-63
2022/08/31 05:01:41;;;;;;;1.53;1.13;;;14.10;99.90;14.20;101136.00;;;;5000497;27;84294;-63
2022/08/31 05:04:08;;;;;;;1.97;0.90;;;14.10;99.90;14.20;101133.00;;;;5002101;27;82484;-63
2022/08/31 05:06:38;;;;;;;1.53;0.93;;;14.20;99.90;14.30;101130.00;;;;5010462;27;82781;-62
2022/08/31 05:09:12;;;;;;;1.10;0.77;;;14.20;99.90;14.30;101133.00;;;;4994785;27;83035;-63
2022/08/31 05:11:39;;;;;;;2.73;1.43;;;14.20;99.90;14.40;101135.00;;;;4992876;27;83957;-63
2022/08/31 05:14:06;;;;;;;2.27;1.10;;;14.30;99.90;14.40;101138.00;;;;5006346;27;82584;-63
2022/08/31 05:16:36;;;;;;;1.27;1.07;;;14.40;99.90;14.50;101136.00;;;;4985475;28;81916;-63
2022/08/31 05:19:01;;;;;;;1.17;0.83;;;14.40;99.90;14.60;101134.00;;;;5001983;27;83518;-63
2022/08/31 05:21:33;;;;;;;1.37;1.23;;;14.50;99.90;14.60;101144.00;;;;5007089;27;113187;-63
2022/08/31 05:24:04;;;;;;;1.38;1.02;;;14.60;99.90;14.70;101137.00;;;;5003975;27;83494;-63
2022/08/31 05:26:36;;;;;;;0.80;0.50;;;14.60;99.90;14.80;101141.00;;;;5012747;27;82471;-65
2022/08/31 05:29:05;;;;;;;1.77;1.50;;;14.70;99.90;15.00;101147.00;;;;5005915;27;83087;-62
2022/08/31 05:31:31;;;;;;;1.83;0.97;;;14.80;99.90;15.10;101148.00;;;;5002356;27;95132;-63
2022/08/31 05:33:57;;;;;;;0.60;0.60;;;15.00;99.90;15.10;101155.00;;;;5011913;27;109851;-63
2022/08/31 05:36:24;;;;;;;1.30;0.90;;;15.00;99.90;15.20;101155.00;;;;5005759;27;110035;-63
2022/08/31 05:38:52;;;;;;;2.67;0.95;;;15.10;99.90;15.30;101163.00;;;;4996381;27;82845;-62
2022/08/31 05:41:19;;;;;;;0.85;0.80;;;15.10;99.90;15.30;101161.00;;;;4992612;28;82397;-63
2022/08/31 05:43:45;;;;;;;0.90;0.90;;;15.20;99.90;15.40;101164.00;;;;4997686;27;97130;-62
2022/08/31 05:46:13;;;;;;;0.75;0.75;;;15.20;99.90;15.40;101169.00;;;;5002850;27;107938;-63
2022/08/31 05:48:40;;;;;;;1.30;1.13;;;15.30;99.90;15.40;101175.00;;;;5009226;27;84350;-63
2022/08/31 05:51:12;;;;;;;1.25;0.95;;;15.30;99.90;15.50;101179.00;;;;5008327;27;83854;-63
2022/08/31 05:53:38;;;;;;;3.55;0.68;;;15.30;99.90;15.50;101175.00;;;;5002605;27;83090;-63
2022/08/31 05:56:09;;;;;;;0.50;0.50;;;15.40;99.90;15.60;101176.00;;;;5011588;27;83155;-64
2022/08/31 05:58:37;;;;;;;1.27;0.70;;;15.40;99.90;15.70;101187.00;;;;5005618;27;84174;-62
2022/08/31 06:01:14;;;;;;;1.33;1.05;;;15.50;99.90;15.70;101180.00;;;;4986399;28;83260;-61
2022/08/31 06:03:41;;;;;;;1.35;1.05;;;15.60;99.90;15.80;101184.00;;;;5008336;27;83009;-62
2022/08/31 06:06:08;;;;;;;0.75;0.70;;;15.70;99.90;15.90;101190.00;;;;5000196;27;100775;-62
2022/08/31 06:08:35;;;;;;;1.27;0.77;;;15.70;99.90;16.00;101188.00;;;;4991641;27;84214;-62
2022/08/31 06:11:02;;;;;;;1.90;1.23;;;15.90;99.90;16.20;101194.00;;;;5011852;27;104078;-62
2022/08/31 06:13:28;;;;;;;0.75;0.70;;;16.00;99.90;16.40;101195.00;;;;5007543;27;83572;-62
2022/08/31 06:15:57;;;;;;;0.85;0.80;;;16.20;99.90;16.60;101196.00;;;;5003982;27;107879;-62
2022/08/31 06:18:24;;;;;;;3.00;1.25;;;16.40;99.90;16.80;101205.00;;;;5003327;27;83995;-62
2022/08/31 06:20:49;;;;;;;0.68;0.68;;;16.60;99.90;16.90;101207.00;;;;4997741;27;104540;-60
2022/08/31 06:23:16;;;;;;;0.88;0.88;;;16.70;99.90;17.10;101199.00;;;;4992154;27;108834;-63
2022/08/31 06:25:41;;;;;;;0.85;0.70;;;16.90;99.90;17.30;101197.00;;;;4991269;28;82660;-64
2022/08/31 06:28:13;;;;;;;0.95;0.82;;;17.10;99.90;17.40;101206.00;;;;5003214;27;111694;-63
2022/08/31 06:30:38;;;;;;;1.30;1.20;;;17.20;99.90;17.50;101207.00;;;;5004530;27;83163;-62
2022/08/31 06:33:05;;;;;;;4.63;1.20;;;17.40;99.90;17.60;101219.00;;;;5008909;27;96326;-63
2022/08/31 06:35:31;;;;;;;0.85;0.80;;;17.40;99.90;17.50;101218.00;;;;4999385;27;98321;-62
2022/08/31 06:37:57;;;;;;;1.08;0.82;;;17.40;99.90;17.50;101213.00;;;;4984103;28;84460;-63
2022/08/31 06:40:25;;;;;;;1.60;0.82;;;17.40;99.90;17.50;101219.00;;;;5010389;27;113985;-62
2022/08/31 06:42:51;;;;;;;3.38;1.13;;;17.40;99.90;17.50;101215.00;;;;5009612;27;82820;-62
2022/08/31 06:45:17;;;;;;;0.65;0.65;;;17.30;99.90;17.50;101220.00;;;;4986630;27;98528;-62
2022/08/31 06:47:43;;;;;;;2.88;1.05;;;17.40;99.90;17.50;101218.00;;;;5009252;27;105574;-62
2022/08/31 06:50:11;;;;;;;1.48;0.55;;;17.40;99.90;17.60;101223.00;;;;5006123;27;98753;-63
2022/08/31 06:52:36;;;;;;;2.28;0.95;;;17.40;99.90;17.70;101225.00;;;;5004074;27;83072;-63
2022/08/31 06:55:03;;;;;;;0.70;0.70;;;17.50;99.90;17.80;101229.00;;;;4992166;27;108713;-62
2022/08/31 06:57:28;;;;;;;1.23;1.13;;;17.60;99.90;18.00;101230.00;;;;5006364;27;98802;-62
2022/08/31 06:59:54;;;;;;;1.67;1.17;;;17.70;99.90;18.20;101229.00;;;;4986125;27;112963;-63
2022/08/31 07:02:20;;;;;;;4.90;1.30;;;18.00;99.90;18.30;101232.00;;;;5006680;27;110533;-62
2022/08/31 07:04:46;;;;;;;0.50;0.50;;;18.10;99.90;18.50;101237.00;;;;5009895;27;83105;-61
2022/08/31 07:07:11;;;;;;;0.88;0.88;;;18.30;99.90;18.70;101233.00;;;;5000978;27;100888;-62
2022/08/31 07:09:39;;;;;;;0.65;0.63;;;18.50;99.90;18.90;101247.00;;;;5007865;27;82716;-64
2022/08/31 07:12:07;;;;;;;0.60;0.60;;;18.70;99.90;19.00;101249.00;;;;5014147;27;82634;-62
2022/08/31 07:14:33;;;;;;;0.93;0.82;;;18.80;99.90;19.10;101243.00;;;;5000498;27;82718;-61
2022/08/31 07:17:01;;;;;;;0.80;0.77;;;18.90;99.90;19.10;101245.00;;;;5007454;27;83133;-61
2022/08/31 07:19:27;;;;;;;0.90;0.80;;;18.90;99.90;19.10;101250.00;;;;5007004;27;83389;-63
2022/08/31 07:21:56;;;;;;;1.17;0.70;;;18.90;99.90;19.10;101254.00;;;;4996235;27;97317;-62
2022/08/31 07:24:28;;;;;;;0.80;0.80;;;19.00;99.90;19.20;101259.00;;;;5008633;27;82997;-61
2022/08/31 07:26:59;;;;;;;0.82;0.82;;;19.00;99.90;19.20;101266.00;;;;5007462;27;84382;-62
2022/08/31 07:29:29;;;;;;;0.88;0.88;;;19.00;99.90;19.20;101267.00;;;;5002212;27;84042;-62
2022/08/31 07:31:58;;;;;;;0.77;0.77;;;19.00;99.90;19.30;101259.00;;;;5005369;27;82663;-62
2022/08/31 07:34:28;;;;;;;1.10;1.00;;;19.10;99.90;19.40;101255.00;;;;5008625;27;82799;-62
2022/08/31 07:42:35;;;;;;;2.38;0.82;;;19.60;99.90;20.10;101263.00;;;;4998131;27;83291;-63
2022/08/31 07:45:05;;;;;;;0.80;0.80;;;19.80;99.90;20.40;101259.00;;;;4987074;28;81873;-65
2022/08/31 07:47:32;;;;;;;0.77;0.77;;;19.90;99.90;20.60;101255.00;;;;5001894;27;83672;-61
2022/08/31 07:49:59;;;;;;;1.05;0.93;;;20.30;99.90;20.80;101251.00;;;;4994239;27;83776;-62
2022/08/31 07:52:31;;;;;;;0.77;0.50;;;20.50;99.90;20.90;101263.00;;;;4985405;28;83592;-62
2022/08/31 07:55:06;;;;;;;4.38;0.93;;;20.60;99.90;20.90;101264.00;;;;4991481;28;82795;-64
2022/08/31 07:57:42;;;;;;;0.47;0.40;;;20.60;99.90;20.90;101261.00;;;;4998674;27;82685;-62
2022/08/31 08:00:16;;;;;;;0.57;0.55;;;20.70;99.90;21.00;101259.00;;;;5002820;27;82613;-62
2022/08/31 08:02:45;;;;;;;0.90;0.88;;;20.70;99.90;21.10;101272.00;;;;5012684;27;82679;-62
2022/08/31 08:05:24;;;;;;;1.45;1.02;;;20.80;99.90;21.20;101269.00;;;;4995088;27;82708;-63
2022/08/31 08:07:52;;;;;;;1.80;1.20;;;20.90;99.90;21.20;101269.00;;;;4998557;27;82818;-62
2022/08/31 08:10:22;;;;;;;8.73;5.07;;;21.00;99.90;21.30;101277.00;;;;5013613;27;81790;-62
2022/08/31 08:12:55;;;;;;;5.70;3.05;;;21.00;99.90;21.30;101281.00;;;;4991895;27;82536;-63
2022/08/31 08:15:25;;;;;;;4.63;2.90;;;21.10;99.90;21.40;101275.00;;;;4993177;27;82754;-62
2022/08/31 08:17:51;;;;;;;2.50;1.67;;;21.10;99.90;21.50;101279.00;;;;5009828;27;114326;-63
2022/08/31 08:20:17;;;;;;;1.85;1.48;;;21.20;99.90;21.60;101276.00;;;;4983067;27;83911;-64
2022/08/31 08:22:43;;;;;;;2.67;1.20;;;21.40;99.90;21.80;101268.00;;;;5005968;27;82736;-63
2022/08/31 08:25:10;;;;;;;0.98;0.90;;;21.50;99.90;22.00;101276.00;;;;5011572;27;83896;-63
2022/08/31 08:27:36;;;;;;;1.30;0.90;;;21.70;99.90;22.10;101263.00;;;;4994433;27;83504;-63
2022/08/31 08:30:05;;;;;;;1.10;0.82;;;21.80;99.90;22.20;101268.00;;;;5003356;27;112870;-62
2022/08/31 08:32:33;;;;;;;0.82;0.60;;;21.90;99.50;22.30;101272.00;;;;5009390;27;103766;-62
2022/08/31 08:34:58;;;;;;;1.65;0.77;;;22.00;98.80;22.40;101267.00;;;;4987533;27;81906;-63
2022/08/31 08:37:26;;;;;;;2.45;0.82;;;22.10;98.50;22.40;101274.00;;;;5005827;27;83228;-63
2022/08/31 08:39:52;;;;;;;0.75;0.40;;;22.20;98.00;22.50;101275.00;;;;5016193;27;83167;-62
2022/08/31 08:42:20;;;;;;;1.75;0.88;;;22.20;96.10;22.50;101280.00;;;;4995923;27;103066;-62
2022/08/31 08:44:46;;;;;;;1.00;0.90;;;22.20;96.10;22.60;101289.00;;;;5009397;27;101154;-64
2022/08/31 08:47:19;;;;;;;0.73;0.52;;;22.30;96.00;22.80;101278.00;;;;5013415;27;112893;-64
2022/08/31 08:49:49;;;;;;;0.52;0.30;;;22.50;95.40;23.10;101280.00;;;;4975920;28;83795;-63
2022/08/31 08:52:34;;;;;;;0.70;0.57;;;22.60;95.30;23.40;101282.00;;;;4997224;28;82750;-65
2022/08/31 08:55:06;;;;;;;1.15;0.85;;;22.90;95.10;23.70;101286.00;;;;4982298;28;82542;-64
2022/08/31 08:57:41;;;;;;;2.92;0.73;;;23.30;94.00;24.00;101285.00;;;;4998937;27;102067;-63
2022/08/31 09:00:14;;;;;;;0.65;0.43;;;23.50;92.90;24.20;101288.00;;;;5008204;27;82829;-64
2022/08/31 09:02:56;;;;;;;1.23;0.75;;;23.70;92.00;24.20;101284.00;;;;5009309;27;82923;-63
2022/08/31 09:05:34;;;;;;;0.82;0.50;;;23.80;90.20;24.20;101286.00;;;;5002292;27;82861;-64
2022/08/31 09:08:30;;;;;;;1.10;0.65;;;23.90;90.80;24.40;101281.00;;;;5007286;27;83743;-64
2022/08/31 09:11:37;;;;;;;2.75;0.50;;;24.10;89.00;24.40;101291.00;;;;5000042;27;84255;-63
2022/08/31 09:14:58;;;;;;;0.77;0.70;;;24.10;85.20;24.20;101285.00;;;;5004719;27;83025;-64
2022/08/31 09:17:55;;;;;;;0.68;0.57;;;23.90;84.60;23.90;101280.00;;;;5000578;27;82726;-63
2022/08/31 09:20:22;;;;;;;0.82;0.52;;;23.70;84.10;23.70;101288.00;;;;4999143;28;83217;-64
2022/08/31 09:22:54;;;;;;;2.70;1.17;;;23.50;84.00;23.50;101289.00;;;;4993039;28;83488;-64
2022/08/31 09:25:31;;;;;;;0.82;0.47;;;23.30;85.30;23.50;101280.00;;;;4999340;27;82781;-64
2022/08/31 09:28:06;;;;;;;0.60;0.60;;;23.20;85.80;23.40;101287.00;;;;5003796;27;82258;-64
2022/08/31 09:30:43;;;;;;;0.75;0.57;;;23.20;84.90;23.50;101293.00;;;;4995697;27;83850;-63
2022/08/31 09:33:26;;;;;;;1.65;0.95;;;23.10;85.10;23.60;101285.00;;;;5002751;27;96457;-63
2022/08/31 09:36:12;;;;;;;0.88;0.50;;;23.20;84.30;23.70;101274.00;;;;5008827;27;83893;-64
2022/08/31 09:38:39;;;;;;;2.05;0.70;;;23.30;83.80;23.80;101278.00;;;;5008444;27;82723;-63
2022/08/31 09:41:30;;;;;;;1.23;1.05;;;23.40;83.60;23.90;101269.00;;;;4997469;27;83507;-64
2022/08/31 09:44:30;;;;;;;0.50;0.50;;;23.50;83.00;24.10;101269.00;;;;4997448;28;83591;-63
2022/08/31 09:47:00;;;;;;;0.32;0.20;;;23.60;81.80;24.30;101276.00;;;;5002627;27;82876;-63
2022/08/31 09:49:36;;;;;;;0.85;0.65;;;23.80;82.50;24.50;101277.00;;;;4982155;28;82712;-64
2022/08/31 09:55:11;;;;;;;1.13;0.60;;;24.00;80.90;24.60;101275.00;;;;4991514;28;83500;-63
2022/08/31 09:55:13;;;;;;;0.35;0.35;;;24.10;80.40;24.70;101266.00;;;;4990572;28;82253;-63
2022/08/31 09:57:56;;;;;;;0.52;0.47;;;24.20;79.30;24.80;101267.00;;;;4993135;27;82718;-62
2022/08/31 10:00:40;;;;;;;0.57;0.47;;;24.40;77.60;24.80;101274.00;;;;5012788;27;82615;-64
2022/08/31 10:03:17;;;;;;;1.38;0.55;;;24.40;75.00;24.80;101275.00;;;;5007202;27;84580;-63
2022/08/31 10:05:43;;;;;;;2.17;0.50;;;24.30;74.70;24.80;101265.00;;;;4989290;27;83630;-64
2022/08/31 10:08:40;;;;;;;0.40;0.40;;;24.30;72.90;24.80;101272.00;;;;4987546;28;108806;-65
2022/08/31 10:11:13;;;;;;;1.15;0.70;;;24.40;72.60;24.80;101269.00;;;;4998151;27;82957;-64
2022/08/31 10:13:56;;;;;;;0.32;0.32;;;24.30;73.40;24.90;101267.00;;;;4982830;28;83530;-65
2022/08/31 10:16:38;;;;;;;0.40;0.40;;;24.40;72.30;24.90;101271.00;;;;4997079;27;82826;-65
2022/08/31 10:19:29;;;;;;;0.95;0.55;;;24.40;72.20;25.10;101269.00;;;;4979520;27;82920;-65
2022/08/31 10:22:24;;;;;;;0.63;0.60;;;24.60;70.80;25.10;101261.00;;;;5006578;27;82173;-65
2022/08/31 10:25:35;;;;;;;0.93;0.45;;;24.70;69.40;25.20;101258.00;;;;4994084;27;82953;-65
2022/08/31 10:28:16;;;;;;;1.38;0.73;;;24.70;69.80;25.30;101250.00;;;;5002350;27;83023;-66
2022/08/31 10:31:01;;;;;;;0.40;0.40;;;24.80;71.30;25.20;101248.00;;;;4993396;27;98923;-66
2022/08/31 10:36:44;;;;;;;0.40;0.32;;;24.60;68.10;24.80;101248.00;;;;4994457;27;82637;-65
2022/08/31 10:39:28;;;;;;;1.55;0.60;;;24.50;67.40;24.70;101254.00;;;;5009113;27;103425;-66
2022/08/31 10:41:54;;;;;;;0.30;0.25;;;24.40;68.80;24.80;101251.00;;;;4992329;27;102277;-66
2022/08/31 10:44:38;;;;;;;0.63;0.40;;;24.40;69.60;24.80;101256.00;;;;5011851;27;107237;-65
2022/08/31 10:47:04;;;;;;;1.33;0.80;;;24.40;69.30;24.80;101258.00;;;;5004938;27;83644;-65
2022/08/31 10:49:34;;;;;;;0.70;0.65;;;24.40;69.60;24.80;101251.00;;;;4995126;27;83470;-66
2022/08/31 10:52:17;;;;;;;1.48;0.55;;;24.40;69.60;24.70;101267.00;;;;5008796;27;82644;-66
2022/08/31 10:55:29;;;;;;;6.13;0.50;;;24.40;69.90;24.70;101262.00;;;;4991394;27;82616;-65
2022/08/31 10:58:44;;;;;;;0.73;0.60;;;24.40;70.50;24.90;101259.00;;;;4985983;27;85016;-65
2022/08/31 11:01:27;;;;;;;2.38;0.60;;;24.40;70.60;25.10;101266.00;;;;4974925;28;105384;-65
2022/08/31 11:04:28;;;;;;;0.40;0.30;;;24.60;70.20;25.40;101264.00;;;;4978081;27;103033;-65
2022/08/31 11:07:14;;;;;;;1.02;0.80;;;24.80;69.70;25.60;101262.00;;;;5011061;27;82883;-65
2022/08/31 11:10:07;;;;;;;0.90;0.63;;;25.20;68.80;25.80;101255.00;;;;4982386;28;106121;-66
2022/08/31 11:12:43;;;;;;;1.90;0.77;;;25.30;67.50;25.70;101255.00;;;;5000503;27;83535;-67
2022/08/31 11:15:12;;;;;;;2.83;0.73;;;25.40;67.10;25.70;101256.00;;;;5012557;27;103569;-64